Boynton Beach, FL (33437)

1:59 AM EDT on May 30, 2015 (GMT -0400)
Valencia Pointe | | Change Station
CLOSE
Current Station
Personal Weather Station
Location: Boynton Beach, FL
Elevation: 33 ft
Nearby Weather Stations

Elev 33 ft 26.51 °N, 80.16 °W | Updated 12 seconds ago

Partly Cloudy
Partly Cloudy
76.2 °F
Feels Like 77 °F
N
0.0
Wind Variable Wind from North

Today
High -- | Low -- °F
--% Chance of Precip.
Yesterday
High -- | Low -- °F
Precip. -- in
6:28 AM 8:08 PM
Waxing Gibbous, 88% visible
Pressure 30.05 in
Visibility 10.0 miles
Clouds Few 2700 ft
Heat Index 77 °F
Dew Point 71 °F
Humidity 83%
Rainfall 0.00 in
Snow Depth Not available.
UV 0 out of 12
Pollen 4.20 out of 12
Air Quality Not available.
Flu Activity Sporadic
METAR KPBI 300553Z 09007KT 10SM FEW027 26/20 A3005 RMK AO2 SLP175 T02560200 10272 20256 58008 $

More Conditions Fewer Conditions

Pressure 30.05 in
Visibility 10.0 miles
Clouds Few 2700 ft
Heat Index 77 °F
Dew Point 71 °F
Humidity 83%
Rainfall 0.00 in
Snow Depth Not available.
UV 0 out of 12
Pollen 4.20 out of 12
Air Quality Not available.
Flu Activity Sporadic
METAR KPBI 300553Z 09007KT 10SM FEW027 26/20 A3005 RMK AO2 SLP175 T02560200 10272 20256 58008 $

More Conditions Fewer Conditions

10-Day Weather Forecast

Almanac

Astronomy

May. 30, 2015 Rise Set
Actual Time
Civil Twilight
Nautical Twilight
Astronomical Twilight
Moon
Length of Visible Light
Length of Day
Tomorrow will be .
, % of the Moon is Illuminated

Today's Extremes

State Highs State Lows

Community

WunderPhotos

Upload Photos

1,825,473 photos uploaded!

WunderBlogs® & News

Nearby

Air Quality

  Air Quality AQ Index Pollutant
Not available.

Snow Depth

Station Depth Elevation

Earthquake Activity

City Distance Mag. Time & Date
Minimum magnitude displayed is 2.5.

Coastal Water Temperatures

Place Temperature

Stations

Nearby Weather Stations

Station Location Temp. Windchill Dew Point Humidity Wind Precip. Elev Updated Type